Time;durP1;ratioP1;P1;durP2;ratioP2;P2;SDS_P1;SDS_P2;PMS_P1;PMS_P2;Temp;Humidity;BMP_temperature;BMP_pressure;BME280_temperature;BME280_humidity;BME280_pressure;Samples;Min_cycle;Max_cycle;Signal;HPM_P1;HPM_P2
2023/11/29 00:01:09;;;;;;;7.00;5.00;;;0.60;99.90;;;;;;5041454;28;20842;-70
2023/11/29 00:03:35;;;;;;;5.83;3.50;;;0.60;99.90;;;;;;5041883;28;20456;-72
2023/11/29 00:06:02;;;;;;;10.77;4.77;;;0.40;99.90;;;;;;5039567;28;20246;-72
2023/11/29 00:08:29;;;;;;;6.47;4.60;;;0.40;99.90;;;;;;5059121;28;20222;-73
2023/11/29 00:10:54;;;;;;;5.00;4.00;;;0.30;99.90;;;;;;5022867;28;20458;-72
2023/11/29 00:13:20;;;;;;;5.70;3.77;;;0.30;99.90;;;;;;5040565;28;20478;-72
2023/11/29 00:15:47;;;;;;;8.40;4.03;;;0.30;99.90;;;;;;5044804;28;20235;-73
2023/11/29 00:18:13;;;;;;;6.33;3.90;;;0.30;99.90;;;;;;5013930;28;20235;-72
2023/11/29 00:20:39;;;;;;;6.13;3.77;;;0.30;99.90;;;;;;5041026;28;20468;-72
2023/11/29 00:23:04;;;;;;;7.10;4.53;;;0.40;99.90;;;;;;5010276;28;21006;-72
2023/11/29 00:25:30;;;;;;;5.57;4.10;;;0.40;99.90;;;;;;5041100;28;20216;-73
2023/11/29 00:27:56;;;;;;;5.50;4.00;;;0.30;99.90;;;;;;5019442;28;20209;-71
2023/11/29 00:30:21;;;;;;;7.43;4.47;;;0.30;99.90;;;;;;5021059;28;20221;-72
2023/11/29 00:32:47;;;;;;;8.13;5.30;;;0.40;99.90;;;;;;5011201;28;20216;-72
2023/11/29 00:35:13;;;;;;;7.60;5.40;;;0.40;99.90;;;;;;5021126;28;20582;-73
2023/11/29 00:37:38;;;;;;;11.20;4.90;;;0.20;99.90;;;;;;5020410;28;20213;-72
2023/11/29 00:40:05;;;;;;;4.77;4.07;;;0.20;99.90;;;;;;5008417;28;20231;-71
2023/11/29 00:42:30;;;;;;;8.20;5.13;;;0.40;99.90;;;;;;5023331;28;20212;-72
2023/11/29 00:44:56;;;;;;;5.13;4.30;;;0.50;99.90;;;;;;5019244;28;20458;-72
2023/11/29 00:47:24;;;;;;;7.03;4.60;;;0.70;99.90;;;;;;5023296;28;20220;-72
2023/11/29 00:49:50;;;;;;;7.40;3.90;;;0.80;99.90;;;;;;5008687;28;20215;-72
2023/11/29 00:52:15;;;;;;;6.83;4.43;;;0.80;99.90;;;;;;5016811;28;20462;-71
2023/11/29 00:54:41;;;;;;;12.67;4.90;;;0.80;99.90;;;;;;5007712;28;20228;-72
2023/11/29 00:57:06;;;;;;;7.77;3.97;;;0.60;99.90;;;;;;5037072;28;20216;-71
2023/11/29 00:59:32;;;;;;;7.47;4.23;;;0.40;99.90;;;;;;5023341;28;20346;-71
2023/11/29 01:01:58;;;;;;;9.20;5.07;;;0.30;99.90;;;;;;5019900;28;20220;-71
2023/11/29 01:04:24;;;;;;;7.63;4.20;;;0.40;99.90;;;;;;5038390;28;20225;-71
2023/11/29 01:06:49;;;;;;;6.60;4.33;;;0.40;99.90;;;;;;5052397;28;20212;-71
2023/11/29 01:09:15;;;;;;;6.30;4.03;;;0.60;99.90;;;;;;5041713;28;20275;-72
2023/11/29 01:11:41;;;;;;;7.27;4.83;;;0.70;99.90;;;;;;5054452;28;20216;-72
2023/11/29 01:14:08;;;;;;;7.47;4.63;;;0.80;99.90;;;;;;5021220;28;20231;-71
2023/11/29 01:16:34;;;;;;;5.07;3.30;;;0.80;99.90;;;;;;5047919;28;20217;-72
2023/11/29 01:19:00;;;;;;;5.90;5.00;;;0.40;99.90;;;;;;5012990;28;20466;-72
2023/11/29 01:21:27;;;;;;;4.73;3.57;;;0.30;99.90;;;;;;5029367;28;20609;-72
2023/11/29 01:23:53;;;;;;;4.10;3.67;;;0.30;99.90;;;;;;5042879;28;20269;-72
2023/11/29 01:26:18;;;;;;;5.13;3.80;;;0.20;99.90;;;;;;5044360;28;20458;-72
2023/11/29 01:28:44;;;;;;;7.80;4.80;;;0.20;99.90;;;;;;5041867;28;20463;-71
2023/11/29 01:31:12;;;;;;;6.93;4.30;;;0.00;99.90;;;;;;5017923;28;20220;-72
2023/11/29 01:33:39;;;;;;;7.27;4.20;;;0.00;99.90;;;;;;5021414;28;20265;-71
2023/11/29 01:36:08;;;;;;;5.80;4.00;;;0.00;99.90;;;;;;5049403;28;20462;-71
2023/11/29 01:38:34;;;;;;;6.10;4.27;;;-0.10;99.90;;;;;;5024339;28;20457;-71
2023/11/29 01:41:01;;;;;;;8.10;4.43;;;-0.10;99.90;;;;;;5044218;28;20458;-72
2023/11/29 01:43:27;;;;;;;8.33;4.80;;;-0.20;99.90;;;;;;5066742;28;20484;-71
2023/11/29 01:45:52;;;;;;;7.83;4.90;;;-0.20;99.90;;;;;;5044632;28;20218;-71
2023/11/29 01:48:20;;;;;;;4.53;3.70;;;-0.20;99.90;;;;;;5060953;28;20418;-72
2023/11/29 01:50:48;;;;;;;10.53;4.43;;;-0.20;99.90;;;;;;5047668;28;20677;-72
2023/11/29 01:53:18;;;;;;;7.03;4.33;;;-0.20;99.90;;;;;;5044901;28;20473;-73
2023/11/29 01:55:50;;;;;;;7.17;4.90;;;-0.20;99.90;;;;;;5069575;28;20522;-72
2023/11/29 01:58:19;;;;;;;5.57;3.93;;;-0.20;99.90;;;;;;5038903;28;20452;-72
2023/11/29 02:00:45;;;;;;;7.57;4.27;;;-0.10;99.90;;;;;;5030563;28;20453;-71
2023/11/29 02:03:12;;;;;;;8.00;4.57;;;-0.10;99.90;;;;;;5045155;28;20910;-72
2023/11/29 02:05:38;;;;;;;7.97;4.37;;;-0.10;99.90;;;;;;5047417;28;20218;-72
2023/11/29 02:08:04;;;;;;;10.47;5.53;;;-0.10;99.90;;;;;;5027519;28;20452;-71
2023/11/29 02:10:30;;;;;;;8.37;3.87;;;-0.10;99.90;;;;;;5031862;28;20328;-72
2023/11/29 02:12:56;;;;;;;5.77;3.93;;;-0.20;99.90;;;;;;5029545;28;20551;-72
2023/11/29 02:15:22;;;;;;;5.10;3.50;;;-0.20;99.90;;;;;;5047093;28;20492;-73
2023/11/29 02:17:47;;;;;;;9.33;5.10;;;-0.10;99.90;;;;;;5043915;28;20451;-72
2023/11/29 02:20:14;;;;;;;6.67;4.80;;;0.00;99.90;;;;;;5043873;28;20671;-71
2023/11/29 02:22:43;;;;;;;6.80;3.90;;;0.00;99.90;;;;;;5050764;28;20234;-72
2023/11/29 02:25:08;;;;;;;8.20;4.57;;;0.10;99.90;;;;;;5046854;28;20486;-71
2023/11/29 02:27:34;;;;;;;10.87;4.67;;;0.30;99.90;;;;;;5045182;28;20539;-72
2023/11/29 02:30:00;;;;;;;8.00;4.90;;;0.20;99.90;;;;;;5042671;28;20218;-72
2023/11/29 02:32:25;;;;;;;6.63;4.00;;;0.00;99.90;;;;;;5064590;28;20220;-72
2023/11/29 02:34:51;;;;;;;5.97;4.30;;;-0.10;99.90;;;;;;5066252;28;20219;-72
2023/11/29 02:37:16;;;;;;;5.37;3.60;;;-0.20;99.90;;;;;;5045428;28;20226;-72
2023/11/29 02:39:42;;;;;;;8.70;3.80;;;-0.20;99.90;;;;;;5022793;28;20242;-72
2023/11/29 02:42:08;;;;;;;7.13;4.73;;;-0.10;99.90;;;;;;5038284;28;20235;-72
2023/11/29 02:44:34;;;;;;;7.37;3.90;;;-0.20;99.90;;;;;;5041918;28;20254;-73
2023/11/29 02:46:59;;;;;;;3.90;3.10;;;-0.30;99.90;;;;;;5026266;28;20216;-72
2023/11/29 02:49:25;;;;;;;8.37;4.63;;;-0.10;99.90;;;;;;5046256;28;20680;-72
2023/11/29 02:51:51;;;;;;;7.30;4.80;;;-0.20;99.90;;;;;;5045118;28;20215;-73
2023/11/29 02:54:18;;;;;;;7.47;4.30;;;-0.30;99.90;;;;;;5030228;28;20315;-73
2023/11/29 02:56:44;;;;;;;7.30;4.33;;;-0.40;99.90;;;;;;5027989;28;20465;-72
2023/11/29 02:59:10;;;;;;;10.03;5.30;;;-0.30;99.90;;;;;;5038290;28;20463;-71
2023/11/29 03:01:35;;;;;;;8.77;5.50;;;-0.20;99.90;;;;;;5008784;28;20523;-72
2023/11/29 03:04:01;;;;;;;6.00;3.77;;;-0.30;99.90;;;;;;5046855;28;20224;-72
2023/11/29 03:06:27;;;;;;;5.83;4.37;;;-0.30;99.90;;;;;;5043413;28;20226;-72
2023/11/29 03:08:52;;;;;;;8.30;5.13;;;-0.30;99.90;;;;;;5039479;28;20243;-71
2023/11/29 03:11:18;;;;;;;9.87;4.77;;;-0.40;99.90;;;;;;5044419;28;20242;-72
2023/11/29 03:13:44;;;;;;;6.67;3.60;;;-0.40;99.90;;;;;;5026080;28;20599;-69
2023/11/29 03:16:10;;;;;;;8.27;5.10;;;-0.40;99.90;;;;;;5039369;28;20237;-72
2023/11/29 03:18:37;;;;;;;7.10;4.90;;;-0.50;99.90;;;;;;5025282;28;20215;-72
2023/11/29 03:21:02;;;;;;;8.83;4.63;;;-0.40;99.90;;;;;;5043571;28;20494;-72
2023/11/29 03:23:28;;;;;;;8.40;4.87;;;-0.50;99.90;;;;;;5064661;28;20226;-72
2023/11/29 03:25:54;;;;;;;9.13;4.90;;;-0.40;99.90;;;;;;5025884;28;20215;-71
2023/11/29 03:28:19;;;;;;;7.60;4.57;;;-0.50;99.90;;;;;;5043524;28;20312;-72
2023/11/29 03:30:45;;;;;;;6.77;3.73;;;-0.50;99.90;;;;;;5046088;28;20578;-72
2023/11/29 03:33:10;;;;;;;6.50;4.40;;;-0.40;99.90;;;;;;5041692;28;20273;-71
2023/11/29 03:35:36;;;;;;;6.20;4.13;;;-0.50;99.90;;;;;;5026057;28;20234;-72
2023/11/29 03:38:02;;;;;;;8.03;3.87;;;-0.50;99.90;;;;;;5058721;28;20338;-71
2023/11/29 03:40:28;;;;;;;8.00;4.53;;;-0.50;99.90;;;;;;5044428;28;20464;-72
2023/11/29 03:42:53;;;;;;;8.27;5.17;;;-0.40;99.90;;;;;;5043539;28;20221;-72
2023/11/29 03:45:19;;;;;;;8.60;4.97;;;-0.50;99.90;;;;;;5040524;28;20218;-71
2023/11/29 03:47:44;;;;;;;5.53;3.70;;;-0.50;99.90;;;;;;5042902;28;20211;-71
2023/11/29 03:50:11;;;;;;;8.67;4.27;;;-0.40;99.90;;;;;;5041686;28;20693;-71
2023/11/29 03:52:37;;;;;;;8.17;4.00;;;-0.30;99.90;;;;;;5060964;28;20499;-72
2023/11/29 03:55:03;;;;;;;16.80;4.87;;;-0.30;99.90;;;;;;5041439;28;20306;-71
2023/11/29 03:57:31;;;;;;;5.13;3.47;;;-0.30;99.90;;;;;;5046019;28;20483;-72
2023/11/29 03:59:57;;;;;;;15.10;5.27;;;-0.20;99.90;;;;;;5056678;28;20457;-72
2023/11/29 04:02:22;;;;;;;10.03;4.93;;;-0.20;99.90;;;;;;5051114;28;20464;-71
2023/11/29 04:04:48;;;;;;;10.77;4.90;;;0.00;99.90;;;;;;5052508;28;20310;-71
2023/11/29 04:07:13;;;;;;;8.80;4.40;;;0.00;99.90;;;;;;5050793;28;20219;-72
2023/11/29 04:09:41;;;;;;;7.37;4.50;;;0.20;99.90;;;;;;5054838;28;20221;-72
2023/11/29 04:12:07;;;;;;;8.87;4.73;;;0.20;99.90;;;;;;5052584;28;20221;-71
2023/11/29 04:14:33;;;;;;;6.83;4.43;;;0.20;99.90;;;;;;5050373;28;20466;-71
2023/11/29 04:16:58;;;;;;;7.67;4.77;;;0.30;99.90;;;;;;5048185;28;20469;-72
2023/11/29 04:19:25;;;;;;;4.97;3.67;;;0.30;99.90;;;;;;5052223;28;20238;-72
2023/11/29 04:21:51;;;;;;;9.83;4.13;;;0.40;99.90;;;;;;5034521;28;20509;-71
2023/11/29 04:24:16;;;;;;;8.70;4.50;;;0.50;99.90;;;;;;5032075;28;20271;-72
2023/11/29 04:26:42;;;;;;;12.60;4.60;;;0.60;99.90;;;;;;5032657;28;20223;-72
2023/11/29 04:29:11;;;;;;;12.40;6.33;;;0.60;99.90;;;;;;5046484;28;20234;-71
2023/11/29 04:31:38;;;;;;;7.73;4.00;;;0.70;99.90;;;;;;5051840;28;20227;-72
2023/11/29 04:34:04;;;;;;;6.60;4.40;;;0.60;99.90;;;;;;5049445;28;20476;-72
2023/11/29 04:36:30;;;;;;;8.90;5.60;;;0.70;99.90;;;;;;5049758;28;20469;-71
2023/11/29 04:38:56;;;;;;;6.97;4.10;;;0.80;99.90;;;;;;5072139;28;20469;-71
2023/11/29 04:41:23;;;;;;;8.77;4.03;;;0.80;99.90;;;;;;5035592;28;20702;-72
2023/11/29 04:43:49;;;;;;;9.90;5.43;;;0.80;99.90;;;;;;5050053;28;20553;-72
2023/11/29 04:46:15;;;;;;;10.13;5.90;;;0.80;99.90;;;;;;5025376;28;20460;-73
2023/11/29 04:48:44;;;;;;;7.23;4.80;;;0.80;99.90;;;;;;5024088;28;20470;-72
2023/11/29 04:51:11;;;;;;;9.97;5.30;;;0.80;99.90;;;;;;5028941;28;20581;-69
2023/11/29 04:53:38;;;;;;;6.40;4.20;;;0.90;99.90;;;;;;5044913;28;20465;-72
2023/11/29 04:56:04;;;;;;;9.43;5.17;;;0.90;99.90;;;;;;5047127;28;20457;-71
2023/11/29 04:58:30;;;;;;;9.87;5.10;;;0.80;99.90;;;;;;5039652;28;20481;-71
2023/11/29 05:00:56;;;;;;;6.67;4.23;;;0.70;99.90;;;;;;5046119;28;20478;-70
2023/11/29 05:03:21;;;;;;;10.97;5.43;;;0.50;99.90;;;;;;5048695;28;20235;-71
2023/11/29 05:05:48;;;;;;;9.33;4.87;;;0.50;99.90;;;;;;5069715;28;20245;-68
2023/11/29 05:08:14;;;;;;;13.20;6.33;;;0.40;99.90;;;;;;5069995;28;20460;-71
2023/11/29 05:10:40;;;;;;;11.10;5.40;;;0.50;99.90;;;;;;5051805;28;20533;-72
2023/11/29 05:13:06;;;;;;;11.97;5.43;;;0.50;99.90;;;;;;5044698;28;20475;-71
2023/11/29 05:15:35;;;;;;;11.33;5.27;;;0.30;99.90;;;;;;5047369;28;20480;-72
2023/11/29 05:18:02;;;;;;;8.77;4.70;;;0.10;99.90;;;;;;5046017;28;20215;-71
2023/11/29 05:20:28;;;;;;;9.60;6.37;;;0.00;99.90;;;;;;5063901;28;20470;-72
2023/11/29 05:22:53;;;;;;;4.87;3.70;;;-0.10;99.90;;;;;;5070333;28;20469;-72
2023/11/29 05:25:19;;;;;;;11.60;5.50;;;-0.10;99.90;;;;;;5066336;28;20220;-71
2023/11/29 05:27:45;;;;;;;10.87;5.03;;;-0.10;99.90;;;;;;5071653;28;20215;-71
2023/11/29 05:30:12;;;;;;;11.53;6.17;;;-0.10;99.90;;;;;;5032946;28;20222;-71
2023/11/29 05:32:37;;;;;;;11.30;5.60;;;-0.10;99.90;;;;;;5052342;28;20465;-72
2023/11/29 05:35:03;;;;;;;10.53;5.73;;;-0.10;99.90;;;;;;5051043;28;20469;-72
2023/11/29 05:37:29;;;;;;;13.03;6.50;;;-0.20;99.90;;;;;;5036289;28;20227;-72
2023/11/29 05:39:55;;;;;;;10.17;6.27;;;-0.20;99.90;;;;;;5049826;28;20456;-70
2023/11/29 05:42:22;;;;;;;11.63;4.00;;;-0.20;99.90;;;;;;5038072;28;20217;-71
2023/11/29 05:44:49;;;;;;;8.70;5.30;;;-0.20;99.90;;;;;;5043342;28;20606;-69
2023/11/29 05:47:15;;;;;;;13.90;5.33;;;-0.20;99.90;;;;;;5037546;28;20481;-72
2023/11/29 05:49:41;;;;;;;8.63;4.33;;;-0.20;99.90;;;;;;5026080;28;20470;-72
2023/11/29 05:52:06;;;;;;;7.40;4.70;;;-0.20;99.90;;;;;;5039409;28;20461;-72
2023/11/29 05:54:32;;;;;;;12.87;6.30;;;-0.10;99.90;;;;;;5036668;28;20320;-72
2023/11/29 05:56:58;;;;;;;19.00;5.90;;;-0.10;99.90;;;;;;5035539;28;20211;-71
2023/11/29 05:59:24;;;;;;;12.20;5.27;;;-0.10;99.90;;;;;;5048847;28;20293;-72
2023/11/29 06:01:51;;;;;;;9.83;5.60;;;-0.10;99.90;;;;;;5047217;28;20292;-72
2023/11/29 06:04:17;;;;;;;6.23;4.23;;;-0.10;99.90;;;;;;5041029;28;20467;-72
2023/11/29 06:06:43;;;;;;;10.63;5.57;;;0.00;99.90;;;;;;5057342;28;20465;-72
2023/11/29 06:09:09;;;;;;;10.37;5.37;;;0.10;99.90;;;;;;5058647;28;20223;-71
2023/11/29 06:11:36;;;;;;;12.37;5.77;;;0.20;99.90;;;;;;5064635;28;20530;-72
2023/11/29 06:14:03;;;;;;;11.83;6.80;;;0.20;99.90;;;;;;5059691;28;20527;-71
2023/11/29 06:16:29;;;;;;;10.40;6.50;;;0.20;99.90;;;;;;5054498;28;20893;-72
2023/11/29 06:18:54;;;;;;;12.27;6.17;;;0.10;99.90;;;;;;5044125;28;20462;-70
2023/11/29 06:21:20;;;;;;;12.07;5.87;;;0.10;99.90;;;;;;5031380;28;20212;-72
2023/11/29 06:23:46;;;;;;;11.07;5.13;;;0.10;99.90;;;;;;5026071;28;20230;-69
2023/11/29 06:26:11;;;;;;;8.23;4.50;;;0.10;99.90;;;;;;5058071;28;20222;-71
2023/11/29 06:28:38;;;;;;;10.50;4.93;;;0.10;99.90;;;;;;5022446;28;20267;-71
2023/11/29 06:31:07;;;;;;;13.77;6.47;;;0.10;99.90;;;;;;5043021;28;20303;-70
2023/11/29 06:33:33;;;;;;;9.13;4.37;;;0.10;99.90;;;;;;5045190;28;20497;-72
2023/11/29 06:36:01;;;;;;;12.20;5.80;;;0.10;99.90;;;;;;5042933;28;20456;-69
2023/11/29 06:38:27;;;;;;;10.53;5.80;;;0.10;99.90;;;;;;5010472;28;20207;-72
2023/11/29 06:40:53;;;;;;;12.33;6.17;;;0.20;99.90;;;;;;5042459;28;20461;-72
2023/11/29 06:43:18;;;;;;;11.70;5.90;;;0.20;99.90;;;;;;5044004;28;21342;-72
2023/11/29 06:45:46;;;;;;;9.27;5.50;;;0.30;99.90;;;;;;5055113;28;20464;-72
2023/11/29 06:48:12;;;;;;;8.57;4.97;;;0.30;99.90;;;;;;5039042;28;20296;-72
2023/11/29 06:50:38;;;;;;;9.43;4.50;;;0.30;99.90;;;;;;5046193;28;20457;-71
2023/11/29 06:53:04;;;;;;;13.73;5.30;;;0.40;99.90;;;;;;5041450;28;20465;-71
2023/11/29 06:55:32;;;;;;;12.10;5.43;;;0.40;99.90;;;;;;5043713;28;20335;-72
2023/11/29 06:57:58;;;;;;;9.40;4.80;;;0.40;99.90;;;;;;5037099;28;20500;-69
2023/11/29 07:00:25;;;;;;;11.17;5.47;;;0.50;99.90;;;;;;5063769;28;20540;-72
2023/11/29 07:02:51;;;;;;;9.47;5.10;;;0.50;99.90;;;;;;5020663;28;20467;-72
2023/11/29 07:05:16;;;;;;;9.27;4.90;;;0.50;99.90;;;;;;5041746;28;20487;-72
2023/11/29 07:07:42;;;;;;;9.87;5.60;;;0.50;99.90;;;;;;5053397;28;20255;-71
2023/11/29 07:10:09;;;;;;;11.73;7.07;;;0.50;99.90;;;;;;5037093;28;20308;-71
2023/11/29 07:12:35;;;;;;;10.73;5.33;;;0.50;99.90;;;;;;5028868;28;20454;-71
2023/11/29 07:15:01;;;;;;;11.63;5.53;;;0.50;99.90;;;;;;5041398;28;21127;-72
2023/11/29 07:17:27;;;;;;;14.57;6.17;;;0.50;99.90;;;;;;5038539;28;20458;-72
2023/11/29 07:19:53;;;;;;;11.07;5.03;;;0.50;99.90;;;;;;5026593;28;20215;-71
2023/11/29 07:22:23;;;;;;;15.80;5.30;;;0.50;99.90;;;;;;5028303;28;20234;-72
2023/11/29 07:24:49;;;;;;;12.70;5.67;;;0.60;99.90;;;;;;5025585;28;20467;-73
2023/11/29 07:27:15;;;;;;;13.70;5.10;;;0.60;99.90;;;;;;5037367;28;20457;-72
2023/11/29 07:29:41;;;;;;;12.80;6.70;;;0.60;99.90;;;;;;5044353;28;20470;-70
2023/11/29 07:32:06;;;;;;;12.23;5.53;;;0.60;99.90;;;;;;5040081;28;20720;-71
2023/11/29 07:34:32;;;;;;;9.50;5.23;;;0.60;99.90;;;;;;5062918;28;20712;-71
2023/11/29 07:36:58;;;;;;;10.73;4.73;;;0.60;99.90;;;;;;5035738;28;20219;-72
2023/11/29 07:39:26;;;;;;;11.10;6.60;;;0.70;99.90;;;;;;5013724;28;20240;-72
2023/11/29 07:41:52;;;;;;;12.73;5.60;;;0.70;99.90;;;;;;5018501;28;20215;-71
2023/11/29 07:44:21;;;;;;;13.03;6.60;;;0.70;99.90;;;;;;5044363;28;20460;-70
2023/11/29 07:46:47;;;;;;;15.43;5.63;;;0.70;99.90;;;;;;5022571;28;20466;-72
2023/11/29 07:49:13;;;;;;;13.70;6.37;;;0.70;99.90;;;;;;5033634;28;20467;-71
2023/11/29 07:51:40;;;;;;;13.20;6.70;;;0.80;99.90;;;;;;5027045;28;20223;-71
2023/11/29 07:54:06;;;;;;;16.70;6.87;;;0.80;99.90;;;;;;5058167;28;20288;-70
2023/11/29 07:56:32;;;;;;;11.27;5.77;;;0.80;99.90;;;;;;5042831;28;20445;-72
2023/11/29 07:58:58;;;;;;;11.63;6.60;;;0.80;99.90;;;;;;5053365;28;20466;-71
2023/11/29 08:01:24;;;;;;;10.90;5.60;;;0.80;99.90;;;;;;5036204;28;20458;-72
2023/11/29 08:03:50;;;;;;;12.20;6.50;;;0.80;99.90;;;;;;5044187;28;20483;-72
2023/11/29 08:06:16;;;;;;;15.53;6.70;;;0.80;99.90;;;;;;5039359;28;20284;-71
2023/11/29 08:08:42;;;;;;;18.13;6.57;;;0.80;99.90;;;;;;5027664;28;20215;-72
2023/11/29 08:11:07;;;;;;;8.70;5.27;;;0.90;99.90;;;;;;5057215;28;20458;-72
2023/11/29 08:13:33;;;;;;;13.10;6.60;;;0.90;99.90;;;;;;5040522;28;20231;-73
2023/11/29 08:15:59;;;;;;;13.80;6.10;;;1.00;99.90;;;;;;5041037;28;20226;-71
2023/11/29 08:18:25;;;;;;;10.63;5.87;;;0.90;99.90;;;;;;5040731;28;20223;-70
2023/11/29 08:20:51;;;;;;;9.60;5.77;;;0.90;99.90;;;;;;5042963;28;20236;-72
2023/11/29 08:23:17;;;;;;;10.87;5.20;;;1.00;99.90;;;;;;5055508;28;20242;-72
2023/11/29 08:25:43;;;;;;;14.83;6.17;;;1.00;99.90;;;;;;5020108;28;20447;-72
2023/11/29 08:28:09;;;;;;;9.80;4.30;;;1.00;99.90;;;;;;5037929;28;20223;-72
2023/11/29 08:30:35;;;;;;;13.23;6.70;;;1.00;99.90;;;;;;5040958;28;20457;-72
2023/11/29 08:33:01;;;;;;;8.60;5.27;;;1.00;99.90;;;;;;5035085;28;20454;-72
2023/11/29 08:35:27;;;;;;;19.50;7.40;;;1.00;99.90;;;;;;5046401;28;20494;-71
2023/11/29 08:37:53;;;;;;;12.93;7.40;;;1.00;99.90;;;;;;5062143;28;20463;-68
2023/11/29 08:40:19;;;;;;;13.80;5.93;;;1.00;99.90;;;;;;5039724;28;20219;-72
2023/11/29 08:42:45;;;;;;;10.70;5.10;;;1.00;99.90;;;;;;5024145;28;20221;-70
2023/11/29 08:45:11;;;;;;;10.10;5.97;;;1.10;99.90;;;;;;5038350;28;20713;-73
2023/11/29 08:47:37;;;;;;;13.53;6.00;;;1.10;99.90;;;;;;5038971;28;20483;-70
2023/11/29 08:50:05;;;;;;;9.20;5.43;;;1.10;99.90;;;;;;5023083;28;20468;-70
2023/11/29 08:52:31;;;;;;;9.73;5.20;;;1.10;99.90;;;;;;5038792;28;20374;-72
2023/11/29 08:54:57;;;;;;;11.00;5.60;;;1.10;99.90;;;;;;5029534;28;20473;-70
2023/11/29 08:57:23;;;;;;;10.57;5.70;;;1.10;99.90;;;;;;5025961;28;20466;-72
2023/11/29 08:59:50;;;;;;;11.80;5.50;;;1.10;99.90;;;;;;5039013;28;20359;-71
2023/11/29 09:02:20;;;;;;;8.43;5.03;;;1.10;99.90;;;;;;5024963;28;20529;-72
2023/11/29 09:04:46;;;;;;;9.53;5.00;;;1.10;99.90;;;;;;5021179;28;20455;-72
2023/11/29 09:07:12;;;;;;;7.80;4.97;;;1.10;99.90;;;;;;5021554;28;20470;-70
2023/11/29 09:09:43;;;;;;;10.53;5.57;;;1.10;99.90;;;;;;5028117;28;20219;-72
2023/11/29 09:12:12;;;;;;;10.90;5.90;;;1.10;99.90;;;;;;5016829;28;20482;-72
2023/11/29 09:14:38;;;;;;;7.57;4.37;;;1.20;99.90;;;;;;5021164;28;20496;-72
2023/11/29 09:17:04;;;;;;;9.07;4.30;;;1.20;99.90;;;;;;5020207;28;20555;-70
2023/11/29 09:19:32;;;;;;;11.73;5.77;;;1.30;99.90;;;;;;5025953;28;20465;-72
2023/11/29 09:21:58;;;;;;;10.47;5.10;;;1.30;99.90;;;;;;5035128;28;20247;-71
2023/11/29 09:24:25;;;;;;;7.20;4.77;;;1.30;99.90;;;;;;5025818;28;20457;-73
2023/11/29 09:26:51;;;;;;;7.93;4.37;;;1.30;99.90;;;;;;5006247;28;20448;-72
2023/11/29 09:29:17;;;;;;;8.20;4.77;;;1.30;99.90;;;;;;5055709;28;20455;-72
2023/11/29 09:31:42;;;;;;;9.17;4.40;;;1.30;99.90;;;;;;5033863;28;20474;-73
2023/11/29 09:34:08;;;;;;;11.37;4.63;;;1.40;99.90;;;;;;5015065;28;20228;-72
2023/11/29 09:36:34;;;;;;;7.77;4.10;;;1.40;99.90;;;;;;5040044;28;20247;-73
2023/11/29 09:39:07;;;;;;;9.63;4.57;;;1.40;99.90;;;;;;5027910;28;20586;-72
2023/11/29 09:41:32;;;;;;;11.80;4.97;;;1.40;99.90;;;;;;5022414;28;20847;-72
2023/11/29 09:44:00;;;;;;;6.10;4.23;;;1.40;99.90;;;;;;5025634;28;20471;-71
2023/11/29 09:46:26;;;;;;;6.67;4.43;;;1.40;99.90;;;;;;5027356;28;20227;-72
2023/11/29 09:48:52;;;;;;;7.40;4.37;;;1.40;99.90;;;;;;5037007;28;20550;-72
2023/11/29 09:51:21;;;;;;;5.33;3.97;;;1.40;99.90;;;;;;5022681;28;20462;-73
2023/11/29 09:53:46;;;;;;;8.07;4.13;;;1.50;99.90;;;;;;5039300;28;20475;-70
2023/11/29 09:56:12;;;;;;;8.17;3.83;;;1.50;99.90;;;;;;5023022;28;20498;-71
2023/11/29 09:58:38;;;;;;;7.73;4.07;;;1.50;99.90;;;;;;5027517;28;20208;-72
2023/11/29 10:01:03;;;;;;;10.23;5.33;;;1.50;99.90;;;;;;5023770;28;20762;-71
2023/11/29 10:03:29;;;;;;;9.20;4.67;;;1.50;99.90;;;;;;5023987;28;20706;-72
2023/11/29 10:05:55;;;;;;;7.40;4.07;;;1.50;99.90;;;;;;5020676;28;20216;-72
2023/11/29 10:08:21;;;;;;;7.43;4.60;;;1.60;99.90;;;;;;5021999;28;20251;-72
2023/11/29 10:10:47;;;;;;;10.00;5.20;;;1.60;99.90;;;;;;5042197;28;20220;-72
2023/11/29 10:13:17;;;;;;;8.90;4.70;;;1.60;99.90;;;;;;5040290;28;21011;-73
2023/11/29 10:15:48;;;;;;;6.57;4.40;;;1.60;99.90;;;;;;5029330;28;20470;-72
2023/11/29 10:18:18;;;;;;;11.47;5.63;;;1.60;99.90;;;;;;5041998;28;20487;-72
2023/11/29 10:20:46;;;;;;;7.00;4.80;;;1.60;99.90;;;;;;5054226;28;20455;-72
2023/11/29 10:23:13;;;;;;;10.13;5.13;;;1.70;99.90;;;;;;5019748;28;20514;-71
2023/11/29 10:25:39;;;;;;;7.57;4.50;;;1.70;99.90;;;;;;5020328;28;20478;-72
2023/11/29 10:28:05;;;;;;;9.00;4.70;;;1.70;99.90;;;;;;5023437;28;20498;-72
2023/11/29 10:30:31;;;;;;;9.60;5.70;;;1.70;99.90;;;;;;5012897;28;20461;-72
2023/11/29 10:32:57;;;;;;;7.77;4.50;;;1.70;99.90;;;;;;5025322;28;20220;-73
2023/11/29 10:35:24;;;;;;;8.13;4.87;;;1.70;99.90;;;;;;5020511;28;20237;-72
2023/11/29 10:38:00;;;;;;;8.53;4.50;;;1.70;99.90;;;;;;5017964;28;20223;-70
2023/11/29 10:40:27;;;;;;;8.73;4.60;;;1.80;99.90;;;;;;5026896;28;20942;-73
2023/11/29 10:42:54;;;;;;;8.20;5.17;;;1.80;99.90;;;;;;5043124;28;20555;-71
2023/11/29 10:45:21;;;;;;;8.43;4.90;;;1.80;99.90;;;;;;5024429;28;20526;-72
2023/11/29 10:47:57;;;;;;;8.07;4.40;;;1.80;99.90;;;;;;5033336;28;20471;-72
2023/11/29 10:50:24;;;;;;;8.27;4.63;;;1.90;99.90;;;;;;5063510;28;20466;-73
2023/11/29 10:52:50;;;;;;;10.57;5.00;;;2.00;99.90;;;;;;5045622;28;20520;-72
2023/11/29 10:55:19;;;;;;;10.03;5.70;;;2.00;99.90;;;;;;5062982;28;20459;-72
2023/11/29 10:58:02;;;;;;;11.23;5.40;;;2.10;99.90;;;;;;5047893;28;20462;-72
2023/11/29 11:00:29;;;;;;;11.43;5.20;;;2.10;99.90;;;;;;5047186;28;20553;-73
2023/11/29 11:02:55;;;;;;;11.30;5.00;;;2.10;99.90;;;;;;5046136;28;20458;-72
2023/11/29 11:05:25;;;;;;;7.10;4.13;;;2.10;99.90;;;;;;5040641;28;20503;-72
2023/11/29 11:07:52;;;;;;;8.53;4.97;;;2.10;99.90;;;;;;5040000;28;20830;-72
2023/11/29 11:10:24;;;;;;;9.07;4.97;;;2.00;99.90;;;;;;5060612;28;20960;-73
2023/11/29 11:12:51;;;;;;;12.47;6.70;;;2.10;99.90;;;;;;5048462;28;20498;-72
2023/11/29 11:15:24;;;;;;;7.37;4.80;;;2.10;99.90;;;;;;5061506;28;20477;-72
2023/11/29 11:18:01;;;;;;;9.63;5.33;;;2.10;99.90;;;;;;5059815;28;20887;-73
2023/11/29 11:21:06;;;;;;;10.03;5.20;;;2.10;99.90;;;;;;5031257;28;20465;-73
2023/11/29 11:23:32;;;;;;;8.10;5.30;;;2.10;99.90;;;;;;4959686;28;20472;-72
2023/11/29 11:26:07;;;;;;;9.30;5.50;;;2.10;99.90;;;;;;5014107;28;21085;-73
2023/11/29 11:28:37;;;;;;;11.10;6.13;;;2.10;99.90;;;;;;5034504;28;20231;-73
2023/11/29 11:31:10;;;;;;;7.60;4.67;;;2.00;99.90;;;;;;5053687;28;20471;-73
2023/11/29 11:33:51;;;;;;;12.00;5.40;;;2.20;99.90;;;;;;5054225;28;20538;-72
2023/11/29 11:36:24;;;;;;;7.07;4.20;;;2.20;99.90;;;;;;5018872;28;20444;-73
2023/11/29 11:38:50;;;;;;;7.53;4.80;;;2.20;99.90;;;;;;5045423;28;20532;-73
2023/11/29 11:41:16;;;;;;;10.07;5.73;;;2.20;99.90;;;;;;5044526;28;20475;-73
2023/11/29 11:43:42;;;;;;;8.23;4.37;;;2.20;99.90;;;;;;5005172;28;20527;-73
2023/11/29 11:46:08;;;;;;;9.33;5.00;;;2.30;99.90;;;;;;5036705;28;20221;-73
2023/11/29 11:48:33;;;;;;;9.83;4.50;;;2.30;99.90;;;;;;5024852;28;20459;-72
2023/11/29 11:51:03;;;;;;;6.50;4.30;;;2.30;99.90;;;;;;5037035;28;20226;-72
2023/11/29 11:53:40;;;;;;;9.47;4.70;;;2.40;99.90;;;;;;5018949;28;20690;-72
2023/11/29 11:56:17;;;;;;;6.73;4.30;;;2.40;99.90;;;;;;5013630;28;20463;-73
2023/11/29 11:58:42;;;;;;;6.10;4.00;;;2.40;99.90;;;;;;5037057;28;21119;-73
2023/11/29 12:01:08;;;;;;;8.67;4.23;;;2.50;99.90;;;;;;5019967;28;20538;-72
2023/11/29 12:03:35;;;;;;;6.63;4.33;;;2.40;99.90;;;;;;5024296;28;20332;-73
2023/11/29 12:06:04;;;;;;;9.63;5.13;;;2.50;99.90;;;;;;5026051;28;20213;-73
2023/11/29 12:08:34;;;;;;;7.73;4.60;;;2.50;99.90;;;;;;5032370;28;20457;-73
2023/11/29 12:11:00;;;;;;;8.23;4.20;;;2.50;99.90;;;;;;5022802;28;20459;-72
2023/11/29 12:13:26;;;;;;;7.67;3.87;;;2.50;99.90;;;;;;5033556;28;20466;-73
2023/11/29 12:15:52;;;;;;;9.43;4.73;;;2.60;99.90;;;;;;5037075;28;20460;-72
2023/11/29 12:18:17;;;;;;;7.40;4.50;;;2.50;99.90;;;;;;5016352;28;20219;-73
2023/11/29 12:20:43;;;;;;;3.93;3.53;;;2.50;99.90;;;;;;5024563;28;20455;-74
2023/11/29 12:23:11;;;;;;;6.10;4.27;;;2.60;99.90;;;;;;5046639;28;20232;-74
2023/11/29 12:25:39;;;;;;;6.63;4.27;;;2.60;99.90;;;;;;5030267;28;20458;-74
2023/11/29 12:28:05;;;;;;;5.60;3.83;;;2.60;99.90;;;;;;5065127;28;20461;-73
2023/11/29 12:30:31;;;;;;;8.27;5.43;;;2.60;99.90;;;;;;5034834;28;20450;-73
2023/11/29 12:32:57;;;;;;;6.57;3.93;;;2.60;99.90;;;;;;5044123;28;20223;-74
2023/11/29 12:35:24;;;;;;;7.80;4.77;;;2.60;99.90;;;;;;5059502;28;20466;-73
2023/11/29 12:37:50;;;;;;;9.67;4.30;;;2.60;99.90;;;;;;5048773;28;20220;-73
2023/11/29 12:40:18;;;;;;;7.67;4.17;;;2.60;99.90;;;;;;5044475;28;20450;-74
2023/11/29 12:42:45;;;;;;;5.97;3.80;;;2.70;99.90;;;;;;5048564;28;20211;-74
2023/11/29 12:45:11;;;;;;;8.00;4.23;;;2.70;99.90;;;;;;5040742;28;21037;-73
2023/11/29 12:47:38;;;;;;;7.63;4.10;;;2.60;99.90;;;;;;5068310;28;20458;-73